Historyczne dane pomiarowe

Dodano dane terminowe – wersja testowa.

Dane z okresu 1951-2019

Wersja bazy: 1.34 [2019-03-16, lista zmian], aktualizacja planowana na 2019-04-15

Dane meteo z obszaru Polski uzyskane na podstawie danych udostępnionych przez Instytut Meteorologii i Gospodarki Wodnej – Państwowy Instytut Badawczy.

 

Wybierz Datę:    

       

TemperaturaWilgotnośćWiatrCiśnienieOpadyŚniegCzas trwania zjawisk
 Stacja t tx tn tng RH VA  wxwx mslp ppp RRR   cm mm wxwxwxwxwxwxwx
1961-08-14 12.9 22.9 5.3- 80.5- 0.0 0.0---- 0.0------------
1961-08-13 12.1 14.8 10.7- 91.0- 5.3 0.3---- 14.4------------
1961-08-12 16.8 22.2 13.4- 85.3- 6.7 1.3---- 25.2------------
1961-08-11 22.4 30.7 18.1- 76.5- 1.3 1.3---- 0.0------------
1961-08-10 23.9 29.5 17.4- 84.0- 2.0 2.0---- 0.0------------
1961-08-09 21.8 27.9 15.1- 81.3- 7.3 0.0---- 7.2------------
1961-08-08 17.7 22.1 14.7- 85.5- 6.0 2.3---- 1.5------------
1961-08-07 22.5 29.5 13.6- 69.0- 2.7 0.0---- 8.8------------
1961-08-06 23.5 30.1 13.3- 59.8- 0.0 1.3---- 0.0------------
1961-08-05 18.3 23.0 14.4- 71.3- 2.0 1.0---- 0.0------------
1961-08-04 16.1 20.0 6.5- 61.3- 1.3 1.3---- 0.0------------
1961-08-03 15.8 19.9 11.5- 82.0- 7.3 0.3---- 0.0------------
1961-08-02 19.1 25.6 9.1- 68.5- 0.0 0.7---- 0.0------------
1961-08-01 13.6 16.9 9.6- 71.3- 1.3 2.7---- 0.0------------
1961-07-31 12.3 13.7 10.5- 93.0- 8.0 3.7---- 16.5------------
1961-07-30 13.2 18.3 10.7- 92.0- 8.0 1.3---- 15.3------------
1961-07-29 14.6 18.7 10.2- 89.5- 8.0 1.0---- 13.0------------
1961-07-28 19.0 25.6 14.7- 76.5- 5.3 1.7---- 3.3------------
1961-07-27 17.9 26.0 13.1- 65.0- 4.0 2.7---- 1.2------------
1961-07-26 14.7 18.1 9.1- 69.0- 1.3 0.0---- 0.0------------
1961-07-25 13.1 15.3 10.1- 76.8- 8.0 1.0---- 0.0------------
1961-07-24 12.9 17.7 8.9- 79.8- 1.3 1.0---- 0.0------------
1961-07-23 14.5 19.3 11.3- 74.8- 5.7 0.7---- 0.0------------
1961-07-22 13.9 17.1 11.2- 83.0- 6.7 2.7---- 0.0------------
1961-07-21 14.3 18.6 10.1- 79.0- 8.0 2.3---- 0.6------------
1961-07-20 14.5 19.9 8.3- 81.8- 6.7 1.3---- 1.8------------
1961-07-19 15.3 19.1 10.2- 71.3- 6.0 2.7---- 1.2------------
1961-07-18 13.8 19.1 10.1- 77.8- 4.0 2.0---- 0.0------------
1961-07-17 15.4 21.2 10.8- 74.8- 1.3 2.7---- 0.0------------
1961-07-16 16.8 21.0 13.1- 73.0- 4.0 3.0---- 0.0------------
1961-07-15 18.3 23.1 12.7- 70.0- 0.3 3.7---- 10.0------------
1961-07-14 14.7 18.6 12.5- 61.0- 3.3 4.0---- 0.0------------
1961-07-13 19.6 28.3 12.6- 77.3- 3.3 1.3---- 32.1------------
1961-07-12 20.4 27.1 13.2- 85.5- 0.0 0.7---- 3.3------------
1961-07-11 15.4 20.6 7.6- 87.5- 1.3 1.0---- 0.3------------
1961-07-10 13.0 17.7 9.3- 87.3- 6.7 2.0---- 1.3------------
1961-07-09 14.1 20.4 7.3- 93.3- 3.3 1.0---- 3.8------------
1961-07-08 13.5 20.0 4.2- 88.0- 0.0 2.0---- 0.0------------
1961-07-07 12.0 15.2 10.0- 79.5- 6.7 2.3---- 0.0------------
1961-07-06 11.6 15.7 5.8- 82.8- 5.7 1.0---- 1.6------------
1961-07-05 13.3 19.0 11.9- 86.3- 7.3 2.7---- 0.0------------
1961-07-04 21.4 29.3 15.5- 91.5- 1.7 2.0---- 9.8------------
1961-07-03 24.0 30.2 11.7- 79.5- 0.0 0.0---- 0.0------------
1961-07-02 22.8 29.0 11.2- 79.5- 0.0 0.0---- 0.0------------
1961-07-01 20.4 26.9 9.5- 80.5- 0.0 0.0---- 0.0------------
1961-06-30 17.1 24.1 7.1- 83.8- 0.0 1.3---- 0.0------------
1961-06-29 14.7 20.8 6.2- 86.8- 1.3 0.7---- 0.0------------
1961-06-28 12.9 20.6 10.8- 94.3- 5.3 1.7---- 5.5------------
1961-06-27 24.4 32.2 16.3- 78.0- 1.7 2.0---- 23.0------------
1961-06-26 23.3 30.6 19.1- 85.5- 4.0 1.7---- 0.0------------
1961-06-25 23.4 29.9 9.7- 66.3- 0.0 2.7---- 0.0------------
1961-06-24 19.2 25.0 8.9- 85.3- 0.0 2.3---- 0.0------------
1961-06-23 18.3 23.5 15.2- 79.0- 4.0 3.3---- 0.0------------
1961-06-22 18.2 24.9 5.0- 87.5- 0.0 1.0---- 1.8------------
1961-06-21 17.9 23.6 6.3- 69.0- 0.0 1.3---- 0.0------------
1961-06-20 14.5 21.2 10.0- 73.5- 0.0 1.3---- 0.0------------
1961-06-19 19.0 26.1 14.3- 84.5- 2.7 1.3---- 0.3------------
1961-06-18 20.6 25.6 7.1- 61.5- 0.0 1.7---- 0.0------------
1961-06-17 15.4 22.6 4.7- 69.8- 0.0 0.7---- 0.0------------
1961-06-16 12.2 18.5 4.5- 81.3- 4.0 0.7---- 0.0------------
544.0 ms

 

Źródłem pochodzenia danych jest Instytut Meteorologii i Gospodarki Wodnej – Państwowy Instytut Badawczy. Dane Instytutu Meteorologii i Gospodarki Wodnej – Państwowego Instytutu Badawczego zostały przetworzone.

Dane źródłowe można odnaleźć na stronie https://dane.imgw.pl